createdAt,value
2022-12-23T00:02:20.317Z,36
2022-12-23T00:04:48.389Z,37
2022-12-23T00:07:16.679Z,31
2022-12-23T00:09:44.913Z,33
2022-12-23T00:12:13.142Z,45
2022-12-23T00:14:41.421Z,27
2022-12-23T00:18:23.765Z,44
2022-12-23T00:23:20.270Z,23
2022-12-23T00:26:25.673Z,21
2022-12-23T00:29:30.893Z,19
2022-12-23T00:32:36.202Z,29
2022-12-23T00:37:32.703Z,27
2022-12-23T00:40:37.985Z,45
2022-12-23T00:43:06.243Z,39
2022-12-23T00:46:48.589Z,34
2022-12-23T00:49:16.875Z,14
2022-12-23T00:51:45.161Z,20
2022-12-23T00:57:10.465Z,26
2022-12-23T01:08:17.613Z,18
2022-12-23T01:11:59.962Z,28
2022-12-23T01:16:56.499Z,33
2022-12-23T01:19:24.697Z,31
2022-12-23T01:21:52.969Z,28
2022-12-23T01:24:21.218Z,29
2022-12-23T01:26:49.467Z,57
2022-12-23T01:29:17.705Z,20
2022-12-23T01:32:22.987Z,31
2022-12-23T01:35:28.319Z,16
2022-12-23T01:38:33.664Z,8
2022-12-23T01:41:38.960Z,5
2022-12-23T01:46:35.438Z,11
2022-12-23T01:51:31.904Z,5
2022-12-23T01:54:37.230Z,3
2022-12-23T01:57:26.190Z,42
2022-12-23T01:59:54.425Z,20
2022-12-23T02:02:22.756Z,7
2022-12-23T02:05:27.947Z,19
2022-12-23T02:07:56.233Z,5
2022-12-23T02:11:38.567Z,9
2022-12-23T02:15:20.968Z,7
2022-12-23T02:20:54.553Z,14
2022-12-23T02:23:22.753Z,18
2022-12-23T02:25:51.026Z,24
2022-12-23T02:28:19.231Z,7
2022-12-23T02:30:47.560Z,31
2022-12-23T02:33:52.810Z,18
2022-12-23T02:36:21.139Z,24
2022-12-23T02:41:17.573Z,9
2022-12-23T02:44:22.850Z,52
2022-12-23T02:47:28.211Z,14
2022-12-23T02:50:33.512Z,6
2022-12-23T02:53:38.791Z,77
2022-12-23T02:57:21.145Z,4
2022-12-23T03:00:26.489Z,6
2022-12-23T03:05:22.993Z,26
2022-12-23T03:08:11.918Z,7
2022-12-23T03:10:40.151Z,16
2022-12-23T03:13:08.405Z,8
2022-12-23T03:16:50.733Z,4
2022-12-23T03:19:18.991Z,14
2022-12-23T03:22:24.341Z,29
2022-12-23T03:25:29.617Z,7
2022-12-23T03:30:26.118Z,26
2022-12-23T03:33:31.436Z,17
2022-12-23T03:36:36.747Z,4
2022-12-23T03:40:19.119Z,15
2022-12-23T03:44:38.533Z,2
2022-12-23T03:49:35.061Z,15
2022-12-23T03:53:17.385Z,22
2022-12-23T03:56:22.751Z,19
2022-12-23T03:59:28.150Z,4
2022-12-23T04:02:33.544Z,4
2022-12-23T04:07:29.925Z,36
2022-12-23T04:12:26.402Z,6
2022-12-23T04:16:45.753Z,12
2022-12-23T04:19:14.045Z,7
2022-12-23T04:21:42.263Z,5
2022-12-23T04:24:10.499Z,11
2022-12-23T04:27:52.889Z,3
2022-12-23T04:34:40.596Z,5
2022-12-23T04:37:08.860Z,13
2022-12-23T04:40:51.179Z,8
2022-12-23T04:44:33.555Z,3
2022-12-23T04:49:21.890Z,4
2022-12-23T04:53:04.209Z,3
2022-12-23T04:56:46.601Z,5
2022-12-23T04:59:14.832Z,3
2022-12-23T05:02:57.290Z,3
2022-12-23T05:05:25.466Z,3
2022-12-23T05:08:30.748Z,11
2022-12-23T05:11:40.263Z,3
2022-12-23T05:14:41.357Z,11
2022-12-23T05:17:09.652Z,8
2022-12-23T05:20:51.975Z,24
2022-12-23T05:23:20.230Z,6
2022-12-23T05:25:48.476Z,11
2022-12-23T05:32:36.157Z,19
2022-12-23T05:36:18.566Z,22
2022-12-23T05:49:53.912Z,5
2022-12-23T05:52:59.217Z,4
2022-12-23T05:57:18.637Z,10
2022-12-23T06:00:23.936Z,11
2022-12-23T06:02:54.070Z,3
2022-12-23T06:06:34.611Z,3
2022-12-23T06:09:39.901Z,10
2022-12-23T06:12:08.258Z,5
2022-12-23T06:14:36.355Z,22
2022-12-23T06:17:41.719Z,19
2022-12-23T06:20:13.499Z,4
2022-12-23T06:23:52.277Z,4
2022-12-23T06:27:34.674Z,4
2022-12-23T06:32:34.491Z,5
2022-12-23T06:36:13.577Z,5
2022-12-23T06:38:41.807Z,3
2022-12-23T06:41:47.128Z,8
2022-12-23T06:46:27.256Z,5
2022-12-23T06:51:23.709Z,15
2022-12-23T06:54:29.036Z,42
2022-12-23T06:57:34.404Z,13
2022-12-23T07:01:53.859Z,8
2022-12-23T07:04:22.014Z,3
2022-12-23T07:06:50.331Z,4
2022-12-23T07:09:18.514Z,37
2022-12-23T07:11:46.813Z,8
2022-12-23T07:15:29.107Z,5
2022-12-23T07:18:34.454Z,4
2022-12-23T07:21:39.731Z,13
2022-12-23T07:25:59.206Z,7
2022-12-23T07:29:41.560Z,7
2022-12-23T07:32:09.854Z,24
2022-12-23T07:35:52.144Z,6
2022-12-23T07:39:34.537Z,6
2022-12-23T07:43:16.875Z,5
2022-12-23T07:46:22.320Z,17
2022-12-23T07:49:27.509Z,14
2022-12-23T07:53:09.917Z,13
2022-12-23T07:56:52.263Z,12
2022-12-23T07:59:20.497Z,27
2022-12-23T08:01:48.842Z,15
2022-12-23T08:05:22.999Z,5
2022-12-23T08:08:28.276Z,12
2022-12-23T08:11:33.544Z,7
2022-12-23T08:16:30.169Z,22
2022-12-23T08:19:35.378Z,26
2022-12-23T08:27:37.182Z,6
2022-12-23T08:32:33.653Z,6
2022-12-23T08:37:30.169Z,14
2022-12-23T08:39:58.360Z,12
2022-12-23T08:43:03.786Z,7
2022-12-23T08:45:31.934Z,10
2022-12-23T08:48:37.296Z,20
2022-12-23T08:52:19.781Z,14
2022-12-23T08:55:24.971Z,28
2022-12-23T08:57:53.190Z,10
2022-12-23T09:04:41.101Z,15
2022-12-23T09:07:46.173Z,10
2022-12-23T09:10:14.451Z,33
2022-12-23T09:12:42.702Z,13
2022-12-23T09:16:25.158Z,29
2022-12-23T09:19:30.369Z,20
2022-12-23T09:23:12.714Z,23
2022-12-23T09:27:15.793Z,19
2022-12-23T09:29:44.028Z,13
2022-12-23T09:32:12.324Z,18
2022-12-23T09:34:40.493Z,11
2022-12-23T09:39:37.057Z,13
2022-12-23T09:43:19.395Z,13
2022-12-23T09:46:24.688Z,25
2022-12-23T09:49:30.028Z,28
2022-12-23T09:52:35.274Z,27
2022-12-23T09:56:17.653Z,15
2022-12-23T09:59:22.952Z,21
2022-12-23T10:02:28.454Z,14
2022-12-23T10:05:33.680Z,26
2022-12-23T10:08:38.934Z,40
2022-12-23T10:12:27.355Z,24
2022-12-23T10:17:17.807Z,21
2022-12-23T10:23:28.433Z,21
2022-12-23T10:28:29.648Z,18
2022-12-23T10:33:21.373Z,14
2022-12-23T10:38:09.698Z,11
2022-12-23T10:40:37.931Z,24
2022-12-23T10:44:57.375Z,30
2022-12-23T10:48:39.751Z,37
2022-12-23T10:51:07.998Z,23
2022-12-23T10:56:41.554Z,18
2022-12-23T10:59:09.757Z,26
2022-12-23T11:02:52.346Z,25
2022-12-23T11:05:20.392Z,37
2022-12-23T11:08:25.726Z,18
2022-12-23T11:11:31.020Z,19
2022-12-23T11:18:18.709Z,14
2022-12-23T11:31:17.058Z,45
2022-12-23T11:42:24.122Z,52
2022-12-23T11:44:52.353Z,64
2022-12-23T11:47:20.597Z,78
2022-12-23T11:49:48.996Z,54
2022-12-23T11:52:17.186Z,72
2022-12-23T11:54:46.763Z,54
2022-12-23T11:57:13.873Z,66
2022-12-23T12:01:28.926Z,28
2022-12-23T12:04:34.245Z,89
2022-12-23T12:07:39.631Z,56
2022-12-23T12:10:44.830Z,62
2022-12-23T12:13:13.133Z,74
2022-12-23T12:15:41.331Z,52
2022-12-23T12:18:50.592Z,62
2022-12-23T12:21:51.942Z,48
2022-12-23T12:24:20.278Z,42
2022-12-23T12:26:48.452Z,53
2022-12-23T12:29:16.730Z,41
2022-12-23T12:34:50.317Z,49
2022-12-23T12:37:18.537Z,51
2022-12-23T12:39:46.768Z,32
2022-12-23T12:42:15.042Z,51
2022-12-23T12:44:43.283Z,44
2022-12-23T12:47:28.428Z,28
2022-12-23T12:49:39.745Z,33
2022-12-23T12:52:08.002Z,50
2022-12-23T12:57:04.497Z,48
2022-12-23T12:59:32.779Z,26
2022-12-23T13:02:38.106Z,35
2022-12-23T13:06:20.401Z,33
2022-12-23T13:09:25.725Z,33
2022-12-23T13:12:31.030Z,33
2022-12-23T13:17:27.537Z,45
2022-12-23T13:19:55.798Z,46
2022-12-23T13:23:15.081Z,47
2022-12-23T13:26:43.446Z,34
2022-12-23T13:29:11.755Z,39
2022-12-23T13:31:39.975Z,24
2022-12-23T13:34:08.235Z,45
2022-12-23T13:38:19.462Z,38
2022-12-23T13:41:24.767Z,57
2022-12-23T13:44:35.067Z,53
2022-12-23T13:50:40.669Z,25
2022-12-23T13:53:46.013Z,36
2022-12-23T13:56:51.317Z,30
2022-12-23T14:01:10.783Z,25
2022-12-23T14:04:16.086Z,34
2022-12-23T14:07:21.401Z,16
2022-12-23T14:10:26.661Z,26
2022-12-23T14:20:19.659Z,24
2022-12-23T14:28:21.507Z,7
2022-12-23T14:30:49.754Z,10
2022-12-23T14:35:58.743Z,14
2022-12-23T14:38:26.931Z,14
2022-12-23T14:40:55.186Z,20
2022-12-23T14:43:23.621Z,13
2022-12-23T14:45:51.668Z,9
2022-12-23T14:48:19.941Z,15
2022-12-23T14:50:48.192Z,15
2022-12-23T14:54:30.540Z,4
2022-12-23T14:57:35.881Z,14
2022-12-23T15:02:32.385Z,8
2022-12-23T15:05:37.620Z,4
2022-12-23T15:09:20.049Z,4
2022-12-23T15:12:25.346Z,8
2022-12-23T15:15:30.623Z,6
2022-12-23T15:17:58.872Z,4
2022-12-23T15:21:41.260Z,4
2022-12-23T15:27:55.980Z,4
2022-12-23T15:31:34.388Z,4
2022-12-23T15:35:16.659Z,4
2022-12-23T15:38:21.926Z,4
2022-12-23T15:43:10.186Z,7
2022-12-23T15:47:29.697Z,3
2022-12-23T15:52:06.983Z,4
2022-12-23T15:54:17.353Z,3
2022-12-23T15:56:45.580Z,3
2022-12-23T15:59:13.866Z,3
2022-12-23T16:02:50.103Z,6
2022-12-23T16:08:30.517Z,3
2022-12-23T16:10:58.052Z,4
2022-12-23T16:14:03.332Z,5
2022-12-23T16:18:22.744Z,6
2022-12-23T16:23:19.263Z,3
2022-12-23T16:26:24.549Z,23
2022-12-23T16:29:29.915Z,6
2022-12-23T16:34:26.361Z,9
2022-12-23T16:39:22.916Z,3
2022-12-23T16:44:11.199Z,4
2022-12-23T16:46:39.418Z,9
2022-12-23T16:50:25.887Z,18
2022-12-23T16:52:54.108Z,13
2022-12-23T16:56:00.970Z,8
2022-12-23T17:00:18.886Z,21
2022-12-23T17:02:47.139Z,6
2022-12-23T17:05:15.382Z,9
2022-12-23T17:08:57.727Z,5
2022-12-23T17:12:03.071Z,11
2022-12-23T17:15:08.360Z,16
2022-12-23T17:18:50.724Z,10
2022-12-23T17:21:19.017Z,4
2022-12-23T17:23:47.223Z,17
2022-12-23T17:26:15.478Z,8
2022-12-23T17:30:34.948Z,20
2022-12-23T17:35:31.383Z,10
2022-12-23T17:37:59.654Z,7
2022-12-23T17:41:42.030Z,16
2022-12-23T17:44:30.909Z,36
2022-12-23T17:48:50.396Z,6
2022-12-23T17:51:55.712Z,6
2022-12-23T17:55:00.995Z,11
2022-12-23T17:59:20.432Z,19
2022-12-23T18:01:48.812Z,28
2022-12-23T18:04:54.013Z,17
2022-12-23T18:07:22.227Z,18
2022-12-23T18:09:50.493Z,23
2022-12-23T18:12:23.176Z,16
2022-12-23T18:14:46.980Z,61
2022-12-23T18:17:15.298Z,23
2022-12-23T18:20:20.551Z,32
2022-12-23T18:23:25.838Z,10
2022-12-23T18:26:31.137Z,13
2022-12-23T18:29:36.472Z,15
2022-12-23T18:33:18.818Z,20
2022-12-23T18:36:24.120Z,31
2022-12-23T18:39:29.431Z,23
2022-12-23T18:44:21.826Z,26
2022-12-23T18:47:27.208Z,21
2022-12-23T18:50:32.453Z,22
2022-12-23T18:53:37.768Z,29
2022-12-23T18:57:20.137Z,13
2022-12-23T19:00:25.471Z,37
2022-12-23T19:03:30.778Z,28
2022-12-23T19:06:36.021Z,40
2022-12-23T19:11:32.534Z,20
2022-12-23T19:14:37.826Z,35
2022-12-23T19:18:20.224Z,13
2022-12-23T19:21:25.543Z,29
2022-12-23T19:24:30.857Z,22
2022-12-23T19:27:36.215Z,58
2022-12-23T19:31:18.560Z,31
2022-12-23T19:34:23.854Z,40
2022-12-23T19:36:52.103Z,38
2022-12-23T19:39:20.322Z,17
2022-12-23T19:43:39.742Z,39
2022-12-23T19:46:08.015Z,30
2022-12-23T19:49:50.364Z,19
2022-12-23T19:52:55.692Z,13
2022-12-23T19:55:57.244Z,20
2022-12-23T19:58:21.076Z,36
2022-12-23T20:00:49.422Z,29
2022-12-23T20:03:17.584Z,36
2022-12-23T20:05:45.871Z,71
2022-12-23T20:08:55.015Z,54
2022-12-23T20:12:33.544Z,36
2022-12-23T20:15:01.728Z,53
2022-12-23T20:18:07.033Z,75
2022-12-23T20:21:49.416Z,41
2022-12-23T20:24:54.696Z,70
2022-12-23T20:28:00.052Z,84
2022-12-23T20:34:47.821Z,98
2022-12-23T20:37:53.006Z,105
2022-12-23T20:42:49.516Z,95
2022-12-23T20:45:54.827Z,106
2022-12-23T20:49:37.212Z,81
2022-12-23T20:52:42.471Z,99
2022-12-23T20:55:31.438Z,63
2022-12-23T20:57:59.677Z,117
2022-12-23T21:00:27.930Z,144
2022-12-23T21:03:33.228Z,121
2022-12-23T21:06:38.545Z,79
2022-12-23T21:10:20.895Z,124
2022-12-23T21:13:26.248Z,104
2022-12-23T21:16:31.551Z,110
2022-12-23T21:19:36.814Z,83
2022-12-23T21:24:33.310Z,102
2022-12-23T21:27:38.644Z,100
2022-12-23T21:31:21.134Z,102
2022-12-23T21:34:26.527Z,121
2022-12-23T21:37:31.649Z,87
2022-12-23T21:42:28.094Z,125
2022-12-23T21:45:33.430Z,108
2022-12-23T21:48:38.768Z,145
2022-12-23T21:52:21.079Z,107
2022-12-23T21:57:09.437Z,75
2022-12-23T21:59:37.659Z,119
2022-12-23T22:03:20.366Z,98
2022-12-23T22:06:25.367Z,96
2022-12-23T22:09:30.631Z,123
2022-12-23T22:14:27.175Z,79
2022-12-23T22:19:23.611Z,129
2022-12-23T22:22:28.916Z,62
2022-12-23T22:25:34.269Z,75
2022-12-23T22:28:39.586Z,121
2022-12-23T22:33:36.059Z,75
2022-12-23T22:37:18.426Z,94
2022-12-23T22:39:46.648Z,84
2022-12-23T22:42:51.984Z,98
2022-12-23T22:45:20.201Z,49
2022-12-23T22:47:48.475Z,61
2022-12-23T22:50:53.812Z,58
2022-12-23T22:53:26.316Z,66
2022-12-23T22:55:50.243Z,51
2022-12-23T22:58:18.527Z,50
2022-12-23T23:00:46.764Z,57
2022-12-23T23:04:29.123Z,51
2022-12-23T23:07:26.248Z,60
2022-12-23T23:10:31.594Z,37
2022-12-23T23:13:36.875Z,48
2022-12-23T23:17:19.233Z,67
2022-12-23T23:20:24.571Z,41
2022-12-23T23:23:29.893Z,82
2022-12-23T23:26:35.187Z,58
2022-12-23T23:30:17.527Z,64
2022-12-23T23:33:22.829Z,59
2022-12-23T23:38:19.327Z,48
2022-12-23T23:40:47.589Z,70
2022-12-23T23:43:52.917Z,68
2022-12-23T23:46:58.223Z,72
2022-12-23T23:53:09.111Z,52
2022-12-23T23:56:51.259Z,103
2022-12-23T23:59:56.502Z,71
